sensor_id;sensor_type;location;lat;lon;timestamp;temperature;humidity
26907;DHT22;14472;56.880;16.658;2023-09-07T00:01:49;15.90;30.60
26907;DHT22;14472;56.880;16.658;2023-09-07T00:04:19;15.90;29.90
26907;DHT22;14472;56.880;16.658;2023-09-07T00:06:45;15.90;36.10
26907;DHT22;14472;56.880;16.658;2023-09-07T00:09:10;15.90;43.60
26907;DHT22;14472;56.880;16.658;2023-09-07T00:11:41;15.90;44.40
26907;DHT22;14472;56.880;16.658;2023-09-07T00:14:07;15.90;42.50
26907;DHT22;14472;56.880;16.658;2023-09-07T00:16:33;15.90;39.20
26907;DHT22;14472;56.880;16.658;2023-09-07T00:19:01;15.90;40.10
26907;DHT22;14472;56.880;16.658;2023-09-07T00:21:28;15.90;40.80
26907;DHT22;14472;56.880;16.658;2023-09-07T00:23:54;15.90;39.70
26907;DHT22;14472;56.880;16.658;2023-09-07T00:26:20;15.80;44.10
26907;DHT22;14472;56.880;16.658;2023-09-07T00:28:46;15.80;51.40
26907;DHT22;14472;56.880;16.658;2023-09-07T00:31:12;15.80;50.90
26907;DHT22;14472;56.880;16.658;2023-09-07T00:33:37;15.80;53.20
26907;DHT22;14472;56.880;16.658;2023-09-07T00:36:03;15.80;49.10
26907;DHT22;14472;56.880;16.658;2023-09-07T00:38:29;15.80;56.00
26907;DHT22;14472;56.880;16.658;2023-09-07T00:40:55;15.80;66.90
26907;DHT22;14472;56.880;16.658;2023-09-07T00:43:21;15.80;70.60
26907;DHT22;14472;56.880;16.658;2023-09-07T00:45:47;15.80;64.60
26907;DHT22;14472;56.880;16.658;2023-09-07T00:48:15;15.80;62.50
26907;DHT22;14472;56.880;16.658;2023-09-07T00:50:44;15.80;71.90
26907;DHT22;14472;56.880;16.658;2023-09-07T00:53:10;15.80;77.60
26907;DHT22;14472;56.880;16.658;2023-09-07T00:55:36;15.80;76.60
26907;DHT22;14472;56.880;16.658;2023-09-07T00:58:06;15.80;66.60
26907;DHT22;14472;56.880;16.658;2023-09-07T01:00:32;15.80;65.70
26907;DHT22;14472;56.880;16.658;2023-09-07T01:02:59;15.80;56.90
26907;DHT22;14472;56.880;16.658;2023-09-07T01:05:34;15.70;63.30
26907;DHT22;14472;56.880;16.658;2023-09-07T01:11:17;15.70;87.40
26907;DHT22;14472;56.880;16.658;2023-09-07T01:13:46;15.70;92.90
26907;DHT22;14472;56.880;16.658;2023-09-07T01:16:12;15.70;97.10
26907;DHT22;14472;56.880;16.658;2023-09-07T01:18:39;15.70;99.90
26907;DHT22;14472;56.880;16.658;2023-09-07T01:21:08;15.70;98.80
26907;DHT22;14472;56.880;16.658;2023-09-07T01:23:40;15.70;99.90
26907;DHT22;14472;56.880;16.658;2023-09-07T01:26:07;15.70;99.90
26907;DHT22;14472;56.880;16.658;2023-09-07T01:28:37;15.80;99.90
26907;DHT22;14472;56.880;16.658;2023-09-07T01:31:03;15.80;99.90
26907;DHT22;14472;56.880;16.658;2023-09-07T01:33:30;15.80;99.90
26907;DHT22;14472;56.880;16.658;2023-09-07T01:35:56;15.80;99.90
26907;DHT22;14472;56.880;16.658;2023-09-07T01:38:21;15.80;99.90
26907;DHT22;14472;56.880;16.658;2023-09-07T01:40:47;15.80;99.90
26907;DHT22;14472;56.880;16.658;2023-09-07T01:43:13;15.90;99.90
26907;DHT22;14472;56.880;16.658;2023-09-07T01:45:39;15.80;99.90
26907;DHT22;14472;56.880;16.658;2023-09-07T01:48:08;15.80;99.90
26907;DHT22;14472;56.880;16.658;2023-09-07T01:50:36;15.80;99.90
26907;DHT22;14472;56.880;16.658;2023-09-07T01:53:02;15.80;99.90
26907;DHT22;14472;56.880;16.658;2023-09-07T01:55:30;15.80;99.90
26907;DHT22;14472;56.880;16.658;2023-09-07T01:57:56;15.70;99.90
26907;DHT22;14472;56.880;16.658;2023-09-07T02:00:21;15.70;97.80
26907;DHT22;14472;56.880;16.658;2023-09-07T02:02:47;15.70;99.60
26907;DHT22;14472;56.880;16.658;2023-09-07T02:05:13;15.80;99.90
26907;DHT22;14472;56.880;16.658;2023-09-07T02:07:39;15.80;99.90
26907;DHT22;14472;56.880;16.658;2023-09-07T02:10:05;15.70;99.90
26907;DHT22;14472;56.880;16.658;2023-09-07T02:12:31;15.70;99.90
26907;DHT22;14472;56.880;16.658;2023-09-07T02:14:58;15.70;99.90
26907;DHT22;14472;56.880;16.658;2023-09-07T02:17:24;15.70;99.90
26907;DHT22;14472;56.880;16.658;2023-09-07T02:19:50;15.60;99.90
26907;DHT22;14472;56.880;16.658;2023-09-07T02:22:16;15.60;99.90
26907;DHT22;14472;56.880;16.658;2023-09-07T02:24:42;15.60;97.10
26907;DHT22;14472;56.880;16.658;2023-09-07T02:27:07;15.60;97.50
26907;DHT22;14472;56.880;16.658;2023-09-07T02:29:33;15.60;97.30
26907;DHT22;14472;56.880;16.658;2023-09-07T02:31:59;15.60;98.70
26907;DHT22;14472;56.880;16.658;2023-09-07T02:34:24;15.60;97.50
26907;DHT22;14472;56.880;16.658;2023-09-07T02:36:50;15.60;93.60
26907;DHT22;14472;56.880;16.658;2023-09-07T02:39:16;15.50;92.80
26907;DHT22;14472;56.880;16.658;2023-09-07T02:41:42;15.50;91.70
26907;DHT22;14472;56.880;16.658;2023-09-07T02:44:08;15.50;83.00
26907;DHT22;14472;56.880;16.658;2023-09-07T02:46:34;15.50;74.30
26907;DHT22;14472;56.880;16.658;2023-09-07T02:48:59;15.50;73.20
26907;DHT22;14472;56.880;16.658;2023-09-07T02:51:25;15.40;76.10
26907;DHT22;14472;56.880;16.658;2023-09-07T02:53:51;15.40;82.90
26907;DHT22;14472;56.880;16.658;2023-09-07T02:56:17;15.40;85.70
26907;DHT22;14472;56.880;16.658;2023-09-07T02:58:43;15.40;82.90
26907;DHT22;14472;56.880;16.658;2023-09-07T03:01:10;15.40;83.00
26907;DHT22;14472;56.880;16.658;2023-09-07T03:03:37;15.30;89.00
26907;DHT22;14472;56.880;16.658;2023-09-07T03:06:13;15.30;87.00
26907;DHT22;14472;56.880;16.658;2023-09-07T03:08:40;15.30;85.40
26907;DHT22;14472;56.880;16.658;2023-09-07T03:11:06;15.30;81.00
26907;DHT22;14472;56.880;16.658;2023-09-07T03:13:32;15.20;82.70
26907;DHT22;14472;56.880;16.658;2023-09-07T03:15:59;15.20;84.80
26907;DHT22;14472;56.880;16.658;2023-09-07T03:18:25;15.20;89.40
26907;DHT22;14472;56.880;16.658;2023-09-07T03:20:53;15.10;92.70
26907;DHT22;14472;56.880;16.658;2023-09-07T03:23:19;15.20;94.80
26907;DHT22;14472;56.880;16.658;2023-09-07T03:25:44;15.20;95.70
26907;DHT22;14472;56.880;16.658;2023-09-07T03:28:10;15.20;96.00
26907;DHT22;14472;56.880;16.658;2023-09-07T03:30:36;15.20;97.30
26907;DHT22;14472;56.880;16.658;2023-09-07T03:33:01;15.20;98.50
26907;DHT22;14472;56.880;16.658;2023-09-07T03:35:28;15.20;99.40
26907;DHT22;14472;56.880;16.658;2023-09-07T03:37:54;15.10;99.90
26907;DHT22;14472;56.880;16.658;2023-09-07T03:40:20;15.10;99.90
26907;DHT22;14472;56.880;16.658;2023-09-07T03:42:46;15.10;99.90
26907;DHT22;14472;56.880;16.658;2023-09-07T03:45:12;15.10;99.90
26907;DHT22;14472;56.880;16.658;2023-09-07T03:47:38;15.20;98.50
26907;DHT22;14472;56.880;16.658;2023-09-07T03:50:04;15.10;95.20
26907;DHT22;14472;56.880;16.658;2023-09-07T03:52:30;15.10;93.70
26907;DHT22;14472;56.880;16.658;2023-09-07T03:54:57;15.10;91.90
26907;DHT22;14472;56.880;16.658;2023-09-07T03:57:24;15.10;92.70
26907;DHT22;14472;56.880;16.658;2023-09-07T03:59:50;15.10;91.70
26907;DHT22;14472;56.880;16.658;2023-09-07T04:02:16;15.10;94.50
26907;DHT22;14472;56.880;16.658;2023-09-07T04:04:53;15.10;97.60
26907;DHT22;14472;56.880;16.658;2023-09-07T04:07:19;15.10;97.60
26907;DHT22;14472;56.880;16.658;2023-09-07T04:09:45;15.10;99.40
26907;DHT22;14472;56.880;16.658;2023-09-07T04:12:11;15.10;99.90
26907;DHT22;14472;56.880;16.658;2023-09-07T04:14:37;15.10;99.90
26907;DHT22;14472;56.880;16.658;2023-09-07T04:17:04;15.10;99.90
26907;DHT22;14472;56.880;16.658;2023-09-07T04:19:30;15.10;99.90
26907;DHT22;14472;56.880;16.658;2023-09-07T04:21:57;15.20;99.90
26907;DHT22;14472;56.880;16.658;2023-09-07T04:24:22;15.20;99.90
26907;DHT22;14472;56.880;16.658;2023-09-07T04:26:48;15.30;99.90
26907;DHT22;14472;56.880;16.658;2023-09-07T04:29:15;15.30;99.90
26907;DHT22;14472;56.880;16.658;2023-09-07T04:31:41;15.30;99.90
26907;DHT22;14472;56.880;16.658;2023-09-07T04:34:07;15.30;99.90
26907;DHT22;14472;56.880;16.658;2023-09-07T04:36:33;15.30;99.90
26907;DHT22;14472;56.880;16.658;2023-09-07T04:38:59;15.40;99.90
26907;DHT22;14472;56.880;16.658;2023-09-07T04:41:25;15.40;99.90
26907;DHT22;14472;56.880;16.658;2023-09-07T04:43:50;15.40;99.90
26907;DHT22;14472;56.880;16.658;2023-09-07T04:46:16;15.40;99.90
26907;DHT22;14472;56.880;16.658;2023-09-07T04:48:42;15.40;99.90
26907;DHT22;14472;56.880;16.658;2023-09-07T04:51:10;15.40;99.90
26907;DHT22;14472;56.880;16.658;2023-09-07T04:53:36;15.40;99.90
26907;DHT22;14472;56.880;16.658;2023-09-07T04:56:03;15.40;99.90
26907;DHT22;14472;56.880;16.658;2023-09-07T04:58:30;15.40;99.90
26907;DHT22;14472;56.880;16.658;2023-09-07T05:01:05;15.50;99.90
26907;DHT22;14472;56.880;16.658;2023-09-07T05:03:31;15.50;99.90
26907;DHT22;14472;56.880;16.658;2023-09-07T05:05:57;15.50;99.90
26907;DHT22;14472;56.880;16.658;2023-09-07T05:08:23;15.50;99.90
26907;DHT22;14472;56.880;16.658;2023-09-07T05:11:01;15.40;99.90
26907;DHT22;14472;56.880;16.658;2023-09-07T05:13:31;15.50;99.90
26907;DHT22;14472;56.880;16.658;2023-09-07T05:15:58;15.50;99.90
26907;DHT22;14472;56.880;16.658;2023-09-07T05:18:25;15.60;99.90
26907;DHT22;14472;56.880;16.658;2023-09-07T05:20:51;15.60;99.90
26907;DHT22;14472;56.880;16.658;2023-09-07T05:23:21;15.60;99.90
26907;DHT22;14472;56.880;16.658;2023-09-07T05:25:49;15.60;99.90
26907;DHT22;14472;56.880;16.658;2023-09-07T05:28:19;15.60;99.90
26907;DHT22;14472;56.880;16.658;2023-09-07T05:30:45;15.70;99.90
26907;DHT22;14472;56.880;16.658;2023-09-07T05:33:12;15.70;99.90
26907;DHT22;14472;56.880;16.658;2023-09-07T05:35:38;15.80;99.90
26907;DHT22;14472;56.880;16.658;2023-09-07T05:38:05;15.80;99.90
26907;DHT22;14472;56.880;16.658;2023-09-07T05:40:37;15.80;99.90
26907;DHT22;14472;56.880;16.658;2023-09-07T05:43:03;15.90;99.90
26907;DHT22;14472;56.880;16.658;2023-09-07T05:45:35;16.00;99.90
26907;DHT22;14472;56.880;16.658;2023-09-07T05:48:02;16.00;99.90
26907;DHT22;14472;56.880;16.658;2023-09-07T05:50:28;16.00;99.90
26907;DHT22;14472;56.880;16.658;2023-09-07T05:52:54;16.10;99.90
26907;DHT22;14472;56.880;16.658;2023-09-07T05:55:20;16.10;99.90
26907;DHT22;14472;56.880;16.658;2023-09-07T05:57:46;16.20;99.90
26907;DHT22;14472;56.880;16.658;2023-09-07T06:00:12;16.20;99.90
26907;DHT22;14472;56.880;16.658;2023-09-07T06:02:39;16.30;99.90
26907;DHT22;14472;56.880;16.658;2023-09-07T06:05:05;16.30;99.90
26907;DHT22;14472;56.880;16.658;2023-09-07T06:07:31;16.40;99.90
26907;DHT22;14472;56.880;16.658;2023-09-07T06:09:56;16.40;99.90
26907;DHT22;14472;56.880;16.658;2023-09-07T06:12:24;16.40;99.90
26907;DHT22;14472;56.880;16.658;2023-09-07T06:14:50;16.50;99.90
26907;DHT22;14472;56.880;16.658;2023-09-07T06:17:16;16.50;99.90
26907;DHT22;14472;56.880;16.658;2023-09-07T06:19:41;16.60;99.90
26907;DHT22;14472;56.880;16.658;2023-09-07T06:22:08;16.60;99.90
26907;DHT22;14472;56.880;16.658;2023-09-07T06:24:33;16.70;99.90
26907;DHT22;14472;56.880;16.658;2023-09-07T06:26:59;16.70;99.90
26907;DHT22;14472;56.880;16.658;2023-09-07T06:29:25;16.80;99.90
26907;DHT22;14472;56.880;16.658;2023-09-07T06:31:51;16.80;99.90
26907;DHT22;14472;56.880;16.658;2023-09-07T06:34:17;16.90;99.90
26907;DHT22;14472;56.880;16.658;2023-09-07T06:36:43;16.90;99.90
26907;DHT22;14472;56.880;16.658;2023-09-07T06:39:09;17.00;99.90
26907;DHT22;14472;56.880;16.658;2023-09-07T06:41:35;17.00;99.90
26907;DHT22;14472;56.880;16.658;2023-09-07T06:44:00;17.10;99.90
26907;DHT22;14472;56.880;16.658;2023-09-07T06:46:26;17.10;99.90
26907;DHT22;14472;56.880;16.658;2023-09-07T06:48:52;17.20;99.90
26907;DHT22;14472;56.880;16.658;2023-09-07T06:51:18;17.20;99.90
26907;DHT22;14472;56.880;16.658;2023-09-07T06:53:43;17.30;99.90
26907;DHT22;14472;56.880;16.658;2023-09-07T06:56:09;17.30;99.90
26907;DHT22;14472;56.880;16.658;2023-09-07T06:58:36;17.40;99.90
26907;DHT22;14472;56.880;16.658;2023-09-07T07:01:02;17.40;99.90
26907;DHT22;14472;56.880;16.658;2023-09-07T07:03:28;17.50;99.90
26907;DHT22;14472;56.880;16.658;2023-09-07T07:05:55;17.50;99.90
26907;DHT22;14472;56.880;16.658;2023-09-07T07:08:21;17.60;99.90
26907;DHT22;14472;56.880;16.658;2023-09-07T07:10:47;17.60;99.90
26907;DHT22;14472;56.880;16.658;2023-09-07T07:13:13;17.70;99.90
26907;DHT22;14472;56.880;16.658;2023-09-07T07:15:39;17.70;99.90
26907;DHT22;14472;56.880;16.658;2023-09-07T07:18:04;17.80;99.90
26907;DHT22;14472;56.880;16.658;2023-09-07T07:20:35;17.80;99.90
26907;DHT22;14472;56.880;16.658;2023-09-07T07:23:01;17.80;99.90
26907;DHT22;14472;56.880;16.658;2023-09-07T07:25:26;17.90;99.90
26907;DHT22;14472;56.880;16.658;2023-09-07T07:27:53;17.90;99.90
26907;DHT22;14472;56.880;16.658;2023-09-07T07:30:18;18.00;99.90
26907;DHT22;14472;56.880;16.658;2023-09-07T07:32:44;18.00;99.90
26907;DHT22;14472;56.880;16.658;2023-09-07T07:35:10;18.00;99.90
26907;DHT22;14472;56.880;16.658;2023-09-07T07:37:35;18.10;99.90
26907;DHT22;14472;56.880;16.658;2023-09-07T07:40:01;18.20;99.90
26907;DHT22;14472;56.880;16.658;2023-09-07T07:42:27;18.20;99.90
26907;DHT22;14472;56.880;16.658;2023-09-07T07:44:53;18.20;99.90
26907;DHT22;14472;56.880;16.658;2023-09-07T07:47:18;18.30;99.90
26907;DHT22;14472;56.880;16.658;2023-09-07T07:49:44;18.30;99.90
26907;DHT22;14472;56.880;16.658;2023-09-07T07:52:10;18.40;99.90
26907;DHT22;14472;56.880;16.658;2023-09-07T07:54:35;18.50;99.90
26907;DHT22;14472;56.880;16.658;2023-09-07T07:57:02;18.50;99.90
26907;DHT22;14472;56.880;16.658;2023-09-07T07:59:28;18.60;99.90
26907;DHT22;14472;56.880;16.658;2023-09-07T08:01:53;18.60;99.90
26907;DHT22;14472;56.880;16.658;2023-09-07T08:04:19;18.70;99.90
26907;DHT22;14472;56.880;16.658;2023-09-07T08:06:45;18.70;99.90
26907;DHT22;14472;56.880;16.658;2023-09-07T08:09:12;18.70;99.90
26907;DHT22;14472;56.880;16.658;2023-09-07T08:11:39;18.80;95.80
26907;DHT22;14472;56.880;16.658;2023-09-07T08:14:05;18.80;91.40
26907;DHT22;14472;56.880;16.658;2023-09-07T08:16:30;18.90;90.40
26907;DHT22;14472;56.880;16.658;2023-09-07T08:18:56;19.00;58.70
26907;DHT22;14472;56.880;16.658;2023-09-07T08:21:22;19.10;55.10
26907;DHT22;14472;56.880;16.658;2023-09-07T08:23:47;19.10;41.30
26907;DHT22;14472;56.880;16.658;2023-09-07T08:26:13;19.20;37.00
26907;DHT22;14472;56.880;16.658;2023-09-07T08:28:40;19.20;41.40
26907;DHT22;14472;56.880;16.658;2023-09-07T08:31:06;19.30;37.90
26907;DHT22;14472;56.880;16.658;2023-09-07T08:33:32;19.40;30.00
26907;DHT22;14472;56.880;16.658;2023-09-07T08:35:58;19.40;27.00
26907;DHT22;14472;56.880;16.658;2023-09-07T08:38:26;19.50;31.10
26907;DHT22;14472;56.880;16.658;2023-09-07T08:41:00;19.50;29.80
26907;DHT22;14472;56.880;16.658;2023-09-07T08:43:28;19.60;19.50
26907;DHT22;14472;56.880;16.658;2023-09-07T08:46:06;19.70;4.70
26907;DHT22;14472;56.880;16.658;2023-09-07T08:48:35;19.70;1.00
26907;DHT22;14472;56.880;16.658;2023-09-07T08:51:02;19.80;1.00
26907;DHT22;14472;56.880;16.658;2023-09-07T08:53:30;19.80;1.00
26907;DHT22;14472;56.880;16.658;2023-09-07T08:55:57;19.90;1.00
26907;DHT22;14472;56.880;16.658;2023-09-07T08:58:23;19.90;1.00
26907;DHT22;14472;56.880;16.658;2023-09-07T09:00:48;20.00;1.00
26907;DHT22;14472;56.880;16.658;2023-09-07T09:03:14;20.00;1.00
26907;DHT22;14472;56.880;16.658;2023-09-07T09:05:40;20.10;9.40
26907;DHT22;14472;56.880;16.658;2023-09-07T09:08:07;20.20;1.00
26907;DHT22;14472;56.880;16.658;2023-09-07T09:10:32;20.20;3.00
26907;DHT22;14472;56.880;16.658;2023-09-07T09:12:58;20.20;5.80
26907;DHT22;14472;56.880;16.658;2023-09-07T09:15:27;20.30;5.30
26907;DHT22;14472;56.880;16.658;2023-09-07T09:17:53;20.30;5.00
26907;DHT22;14472;56.880;16.658;2023-09-07T09:20:25;20.40;5.00
26907;DHT22;14472;56.880;16.658;2023-09-07T09:22:55;20.40;4.70
26907;DHT22;14472;56.880;16.658;2023-09-07T09:25:22;20.40;6.30
26907;DHT22;14472;56.880;16.658;2023-09-07T09:27:48;20.50;8.20
26907;DHT22;14472;56.880;16.658;2023-09-07T09:30:14;20.50;6.20
26907;DHT22;14472;56.880;16.658;2023-09-07T09:32:42;20.60;6.90
26907;DHT22;14472;56.880;16.658;2023-09-07T09:35:09;20.60;3.60
26907;DHT22;14472;56.880;16.658;2023-09-07T09:37:46;20.70;1.30
26907;DHT22;14472;56.880;16.658;2023-09-07T09:40:13;20.70;4.60
26907;DHT22;14472;56.880;16.658;2023-09-07T09:42:41;20.80;6.60
26907;DHT22;14472;56.880;16.658;2023-09-07T09:45:09;20.80;7.80
26907;DHT22;14472;56.880;16.658;2023-09-07T09:47:38;20.90;6.30
26907;DHT22;14472;56.880;16.658;2023-09-07T09:50:09;20.90;2.10
26907;DHT22;14472;56.880;16.658;2023-09-07T09:52:35;20.90;1.00
26907;DHT22;14472;56.880;16.658;2023-09-07T09:55:06;21.00;1.00
26907;DHT22;14472;56.880;16.658;2023-09-07T09:57:38;21.00;1.00
26907;DHT22;14472;56.880;16.658;2023-09-07T10:00:07;21.10;1.00
26907;DHT22;14472;56.880;16.658;2023-09-07T10:02:51;21.10;1.00
26907;DHT22;14472;56.880;16.658;2023-09-07T10:05:20;21.10;1.30
26907;DHT22;14472;56.880;16.658;2023-09-07T10:07:49;21.10;1.00
26907;DHT22;14472;56.880;16.658;2023-09-07T10:10:18;21.20;1.00
26907;DHT22;14472;56.880;16.658;2023-09-07T10:12:45;21.20;1.00
26907;DHT22;14472;56.880;16.658;2023-09-07T10:15:24;21.20;1.00
26907;DHT22;14472;56.880;16.658;2023-09-07T10:17:50;21.30;1.70
26907;DHT22;14472;56.880;16.658;2023-09-07T10:20:27;21.30;1.70
26907;DHT22;14472;56.880;16.658;2023-09-07T10:23:05;21.30;5.30
26907;DHT22;14472;56.880;16.658;2023-09-07T10:25:31;21.30;6.00
26907;DHT22;14472;56.880;16.658;2023-09-07T10:27:57;21.30;4.20
26907;DHT22;14472;56.880;16.658;2023-09-07T10:30:25;21.40;1.00
26907;DHT22;14472;56.880;16.658;2023-09-07T10:32:53;21.40;6.40
26907;DHT22;14472;56.880;16.658;2023-09-07T10:35:19;21.50;5.20
26907;DHT22;14472;56.880;16.658;2023-09-07T10:37:48;21.50;3.60
26907;DHT22;14472;56.880;16.658;2023-09-07T10:40:21;21.50;1.80
26907;DHT22;14472;56.880;16.658;2023-09-07T10:42:47;21.50;1.00
26907;DHT22;14472;56.880;16.658;2023-09-07T10:45:16;21.50;1.00
26907;DHT22;14472;56.880;16.658;2023-09-07T10:47:43;21.50;1.00
26907;DHT22;14472;56.880;16.658;2023-09-07T10:50:13;21.50;1.00
26907;DHT22;14472;56.880;16.658;2023-09-07T10:52:42;21.50;1.00
26907;DHT22;14472;56.880;16.658;2023-09-07T10:55:11;21.60;1.00
26907;DHT22;14472;56.880;16.658;2023-09-07T10:57:47;21.60;1.00
26907;DHT22;14472;56.880;16.658;2023-09-07T11:00:14;21.60;1.00
26907;DHT22;14472;56.880;16.658;2023-09-07T11:02:41;21.60;1.00
26907;DHT22;14472;56.880;16.658;2023-09-07T11:05:08;21.70;1.00
26907;DHT22;14472;56.880;16.658;2023-09-07T11:07:34;21.70;1.00
26907;DHT22;14472;56.880;16.658;2023-09-07T11:10:00;21.70;1.00
26907;DHT22;14472;56.880;16.658;2023-09-07T11:12:25;21.80;1.00
26907;DHT22;14472;56.880;16.658;2023-09-07T11:14:51;21.80;1.00
26907;DHT22;14472;56.880;16.658;2023-09-07T11:17:18;21.80;1.00
26907;DHT22;14472;56.880;16.658;2023-09-07T11:19:44;21.90;1.00
26907;DHT22;14472;56.880;16.658;2023-09-07T11:22:11;21.90;1.00
26907;DHT22;14472;56.880;16.658;2023-09-07T11:24:37;21.90;1.00
26907;DHT22;14472;56.880;16.658;2023-09-07T11:27:08;22.00;1.00
26907;DHT22;14472;56.880;16.658;2023-09-07T11:29:34;22.00;1.00
26907;DHT22;14472;56.880;16.658;2023-09-07T11:32:07;22.00;1.00
26907;DHT22;14472;56.880;16.658;2023-09-07T11:34:33;22.00;1.00
26907;DHT22;14472;56.880;16.658;2023-09-07T11:36:58;22.10;1.00
26907;DHT22;14472;56.880;16.658;2023-09-07T11:39:24;22.10;1.00
26907;DHT22;14472;56.880;16.658;2023-09-07T11:41:50;22.10;1.00
26907;DHT22;14472;56.880;16.658;2023-09-07T11:44:15;22.20;1.00
26907;DHT22;14472;56.880;16.658;2023-09-07T11:46:41;22.30;4.70
26907;DHT22;14472;56.880;16.658;2023-09-07T11:49:07;22.30;1.00
26907;DHT22;14472;56.880;16.658;2023-09-07T11:51:34;22.30;1.00
26907;DHT22;14472;56.880;16.658;2023-09-07T11:54:02;22.30;1.00
26907;DHT22;14472;56.880;16.658;2023-09-07T11:56:28;22.30;1.00
26907;DHT22;14472;56.880;16.658;2023-09-07T11:58:53;22.20;1.00
26907;DHT22;14472;56.880;16.658;2023-09-07T12:01:20;22.20;1.00
26907;DHT22;14472;56.880;16.658;2023-09-07T12:03:46;22.20;1.00
26907;DHT22;14472;56.880;16.658;2023-09-07T12:06:13;22.20;1.00
26907;DHT22;14472;56.880;16.658;2023-09-07T12:08:42;22.10;1.00
26907;DHT22;14472;56.880;16.658;2023-09-07T12:11:08;22.10;1.00
26907;DHT22;14472;56.880;16.658;2023-09-07T12:13:34;22.10;1.00
26907;DHT22;14472;56.880;16.658;2023-09-07T12:16:00;22.00;1.00
26907;DHT22;14472;56.880;16.658;2023-09-07T12:18:27;22.00;1.00
26907;DHT22;14472;56.880;16.658;2023-09-07T12:20:53;22.00;1.00
26907;DHT22;14472;56.880;16.658;2023-09-07T12:23:19;22.00;1.00
26907;DHT22;14472;56.880;16.658;2023-09-07T12:25:45;21.90;1.00
26907;DHT22;14472;56.880;16.658;2023-09-07T12:28:16;21.90;1.00
26907;DHT22;14472;56.880;16.658;2023-09-07T12:30:41;21.90;1.00
26907;DHT22;14472;56.880;16.658;2023-09-07T12:33:10;21.90;1.00
26907;DHT22;14472;56.880;16.658;2023-09-07T12:35:36;21.90;1.00
26907;DHT22;14472;56.880;16.658;2023-09-07T12:38:01;21.90;1.00
26907;DHT22;14472;56.880;16.658;2023-09-07T12:40:28;21.90;1.00
26907;DHT22;14472;56.880;16.658;2023-09-07T12:42:54;21.90;1.00
26907;DHT22;14472;56.880;16.658;2023-09-07T12:45:20;21.90;1.00
26907;DHT22;14472;56.880;16.658;2023-09-07T12:47:45;21.90;2.10
26907;DHT22;14472;56.880;16.658;2023-09-07T12:50:11;22.00;11.50
26907;DHT22;14472;56.880;16.658;2023-09-07T12:52:37;22.10;20.60
26907;DHT22;14472;56.880;16.658;2023-09-07T12:55:05;22.10;18.00
26907;DHT22;14472;56.880;16.658;2023-09-07T12:57:31;22.10;18.90
26907;DHT22;14472;56.880;16.658;2023-09-07T12:59:56;22.10;2.20
26907;DHT22;14472;56.880;16.658;2023-09-07T13:02:22;22.10;16.60
26907;DHT22;14472;56.880;16.658;2023-09-07T13:04:48;22.20;24.40
26907;DHT22;14472;56.880;16.658;2023-09-07T13:07:13;22.30;21.40
26907;DHT22;14472;56.880;16.658;2023-09-07T13:09:42;22.30;19.70
26907;DHT22;14472;56.880;16.658;2023-09-07T13:12:08;22.40;21.40
26907;DHT22;14472;56.880;16.658;2023-09-07T13:14:33;22.40;16.60
26907;DHT22;14472;56.880;16.658;2023-09-07T13:16:59;22.50;16.30
26907;DHT22;14472;56.880;16.658;2023-09-07T13:19:25;22.50;18.60
26907;DHT22;14472;56.880;16.658;2023-09-07T13:21:51;22.60;15.50
26907;DHT22;14472;56.880;16.658;2023-09-07T13:24:16;22.60;13.80
26907;DHT22;14472;56.880;16.658;2023-09-07T13:26:46;22.60;10.10
26907;DHT22;14472;56.880;16.658;2023-09-07T13:29:12;22.60;11.30
26907;DHT22;14472;56.880;16.658;2023-09-07T13:31:38;22.60;5.00
26907;DHT22;14472;56.880;16.658;2023-09-07T13:34:03;22.60;1.00
26907;DHT22;14472;56.880;16.658;2023-09-07T13:36:30;22.60;1.00
26907;DHT22;14472;56.880;16.658;2023-09-07T13:38:55;22.60;1.00
26907;DHT22;14472;56.880;16.658;2023-09-07T13:41:23;22.60;1.00
26907;DHT22;14472;56.880;16.658;2023-09-07T13:43:48;22.60;1.60
26907;DHT22;14472;56.880;16.658;2023-09-07T13:46:14;22.60;1.00
26907;DHT22;14472;56.880;16.658;2023-09-07T13:48:40;22.70;1.00
26907;DHT22;14472;56.880;16.658;2023-09-07T13:51:05;22.60;1.00
26907;DHT22;14472;56.880;16.658;2023-09-07T13:53:32;22.70;1.00
26907;DHT22;14472;56.880;16.658;2023-09-07T13:55:58;22.70;1.00
26907;DHT22;14472;56.880;16.658;2023-09-07T13:58:24;22.80;1.00
26907;DHT22;14472;56.880;16.658;2023-09-07T14:00:49;22.80;1.00
26907;DHT22;14472;56.880;16.658;2023-09-07T14:03:16;22.80;1.00
26907;DHT22;14472;56.880;16.658;2023-09-07T14:05:42;22.80;1.00
26907;DHT22;14472;56.880;16.658;2023-09-07T14:08:08;22.80;1.00
26907;DHT22;14472;56.880;16.658;2023-09-07T14:10:33;22.80;1.00
26907;DHT22;14472;56.880;16.658;2023-09-07T14:12:59;22.80;1.00
26907;DHT22;14472;56.880;16.658;2023-09-07T14:15:25;22.80;1.00
26907;DHT22;14472;56.880;16.658;2023-09-07T14:17:50;22.80;1.00
26907;DHT22;14472;56.880;16.658;2023-09-07T14:20:16;22.80;1.00
26907;DHT22;14472;56.880;16.658;2023-09-07T14:22:42;22.80;1.00
26907;DHT22;14472;56.880;16.658;2023-09-07T14:25:08;22.80;1.00
26907;DHT22;14472;56.880;16.658;2023-09-07T14:27:33;22.80;1.00
26907;DHT22;14472;56.880;16.658;2023-09-07T14:29:59;22.70;1.00
26907;DHT22;14472;56.880;16.658;2023-09-07T14:32:25;22.70;1.00
26907;DHT22;14472;56.880;16.658;2023-09-07T14:34:50;22.70;1.00
26907;DHT22;14472;56.880;16.658;2023-09-07T14:37:16;22.80;1.00
26907;DHT22;14472;56.880;16.658;2023-09-07T14:39:42;22.80;1.00
26907;DHT22;14472;56.880;16.658;2023-09-07T14:42:13;22.70;1.00
26907;DHT22;14472;56.880;16.658;2023-09-07T14:44:42;22.80;1.00
26907;DHT22;14472;56.880;16.658;2023-09-07T14:47:08;22.80;1.00
26907;DHT22;14472;56.880;16.658;2023-09-07T14:49:33;22.70;1.00
26907;DHT22;14472;56.880;16.658;2023-09-07T14:51:59;22.70;1.00
26907;DHT22;14472;56.880;16.658;2023-09-07T14:54:25;22.80;1.00
26907;DHT22;14472;56.880;16.658;2023-09-07T14:56:50;22.80;1.00
26907;DHT22;14472;56.880;16.658;2023-09-07T14:59:16;22.80;1.00
26907;DHT22;14472;56.880;16.658;2023-09-07T15:01:42;22.80;1.00
26907;DHT22;14472;56.880;16.658;2023-09-07T15:04:08;22.80;1.00
26907;DHT22;14472;56.880;16.658;2023-09-07T15:06:34;22.80;1.00
26907;DHT22;14472;56.880;16.658;2023-09-07T15:09:00;22.80;1.00
26907;DHT22;14472;56.880;16.658;2023-09-07T15:11:25;22.90;1.00
26907;DHT22;14472;56.880;16.658;2023-09-07T15:13:51;22.90;1.00
26907;DHT22;14472;56.880;16.658;2023-09-07T15:16:18;22.90;1.00
26907;DHT22;14472;56.880;16.658;2023-09-07T15:18:44;22.90;1.00
26907;DHT22;14472;56.880;16.658;2023-09-07T15:21:10;22.90;1.00
26907;DHT22;14472;56.880;16.658;2023-09-07T15:23:36;22.90;1.00